sensor_id;sensor_type;location;lat;lon;timestamp;P1;durP1;ratioP1;P2;durP2;ratioP2
64601;SDS011;68371;42.630;23.192;2023-06-10T00:02:04;9.30;;;5.43;;
64601;SDS011;68371;42.630;23.192;2023-06-10T00:04:32;9.25;;;4.82;;
64601;SDS011;68371;42.630;23.192;2023-06-10T00:07:01;6.97;;;4.85;;
64601;SDS011;68371;42.630;23.192;2023-06-10T00:09:30;9.48;;;4.85;;
64601;SDS011;68371;42.630;23.192;2023-06-10T00:11:56;9.95;;;5.07;;
64601;SDS011;68371;42.630;23.192;2023-06-10T00:14:27;10.18;;;4.90;;
64601;SDS011;68371;42.630;23.192;2023-06-10T00:16:56;7.10;;;5.05;;
64601;SDS011;68371;42.630;23.192;2023-06-10T00:19:25;9.32;;;4.55;;
64601;SDS011;68371;42.630;23.192;2023-06-10T00:21:55;8.00;;;4.80;;
64601;SDS011;68371;42.630;23.192;2023-06-10T00:24:22;14.07;;;5.82;;
64601;SDS011;68371;42.630;23.192;2023-06-10T00:26:49;6.43;;;4.32;;
64601;SDS011;68371;42.630;23.192;2023-06-10T00:29:16;8.77;;;4.75;;
64601;SDS011;68371;42.630;23.192;2023-06-10T00:31:44;6.28;;;4.70;;
64601;SDS011;68371;42.630;23.192;2023-06-10T00:34:11;6.32;;;4.88;;
64601;SDS011;68371;42.630;23.192;2023-06-10T00:36:38;7.53;;;5.00;;
64601;SDS011;68371;42.630;23.192;2023-06-10T00:39:04;7.13;;;4.80;;
64601;SDS011;68371;42.630;23.192;2023-06-10T00:41:32;7.55;;;5.05;;
64601;SDS011;68371;42.630;23.192;2023-06-10T00:43:59;6.60;;;4.50;;
64601;SDS011;68371;42.630;23.192;2023-06-10T00:46:28;7.05;;;4.47;;
64601;SDS011;68371;42.630;23.192;2023-06-10T00:48:58;6.43;;;4.30;;
64601;SDS011;68371;42.630;23.192;2023-06-10T00:51:28;7.15;;;4.32;;
64601;SDS011;68371;42.630;23.192;2023-06-10T00:53:54;7.22;;;4.20;;
64601;SDS011;68371;42.630;23.192;2023-06-10T00:56:22;4.60;;;3.95;;
64601;SDS011;68371;42.630;23.192;2023-06-10T00:58:49;10.15;;;4.63;;
64601;SDS011;68371;42.630;23.192;2023-06-10T01:01:16;8.80;;;4.18;;
64601;SDS011;68371;42.630;23.192;2023-06-10T01:03:45;8.75;;;3.97;;
64601;SDS011;68371;42.630;23.192;2023-06-10T01:06:17;6.05;;;3.72;;
64601;SDS011;68371;42.630;23.192;2023-06-10T01:08:53;7.05;;;3.70;;
64601;SDS011;68371;42.630;23.192;2023-06-10T01:11:28;6.50;;;3.72;;
64601;SDS011;68371;42.630;23.192;2023-06-10T01:14:00;6.05;;;3.80;;
64601;SDS011;68371;42.630;23.192;2023-06-10T01:16:30;6.85;;;4.72;;
64601;SDS011;68371;42.630;23.192;2023-06-10T01:19:02;7.05;;;4.18;;
64601;SDS011;68371;42.630;23.192;2023-06-10T01:21:33;7.90;;;4.38;;
64601;SDS011;68371;42.630;23.192;2023-06-10T01:24:00;4.22;;;3.70;;
64601;SDS011;68371;42.630;23.192;2023-06-10T01:26:33;6.28;;;4.22;;
64601;SDS011;68371;42.630;23.192;2023-06-10T01:29:05;12.77;;;4.18;;
64601;SDS011;68371;42.630;23.192;2023-06-10T01:31:38;10.50;;;4.93;;
64601;SDS011;68371;42.630;23.192;2023-06-10T01:34:12;6.50;;;4.45;;
64601;SDS011;68371;42.630;23.192;2023-06-10T01:36:44;7.57;;;4.30;;
64601;SDS011;68371;42.630;23.192;2023-06-10T01:39:14;7.35;;;4.55;;
64601;SDS011;68371;42.630;23.192;2023-06-10T01:41:41;7.38;;;4.25;;
64601;SDS011;68371;42.630;23.192;2023-06-10T01:44:08;6.00;;;4.20;;
64601;SDS011;68371;42.630;23.192;2023-06-10T01:46:35;7.85;;;4.22;;
64601;SDS011;68371;42.630;23.192;2023-06-10T01:49:04;6.97;;;4.68;;
64601;SDS011;68371;42.630;23.192;2023-06-10T01:51:31;5.35;;;4.25;;
64601;SDS011;68371;42.630;23.192;2023-06-10T01:54:04;6.18;;;4.22;;
64601;SDS011;68371;42.630;23.192;2023-06-10T01:56:31;8.55;;;5.15;;
64601;SDS011;68371;42.630;23.192;2023-06-10T01:59:00;7.68;;;4.38;;
64601;SDS011;68371;42.630;23.192;2023-06-10T02:01:28;8.00;;;4.55;;
64601;SDS011;68371;42.630;23.192;2023-06-10T02:03:55;8.25;;;4.65;;
64601;SDS011;68371;42.630;23.192;2023-06-10T02:06:21;8.25;;;4.50;;
64601;SDS011;68371;42.630;23.192;2023-06-10T02:08:48;6.45;;;4.47;;
64601;SDS011;68371;42.630;23.192;2023-06-10T02:11:17;5.95;;;4.40;;
64601;SDS011;68371;42.630;23.192;2023-06-10T02:13:43;7.20;;;4.55;;
64601;SDS011;68371;42.630;23.192;2023-06-10T02:16:10;7.68;;;4.95;;
64601;SDS011;68371;42.630;23.192;2023-06-10T02:18:38;7.13;;;4.80;;
64601;SDS011;68371;42.630;23.192;2023-06-10T02:21:05;9.13;;;4.35;;
64601;SDS011;68371;42.630;23.192;2023-06-10T02:23:33;6.00;;;4.45;;
64601;SDS011;68371;42.630;23.192;2023-06-10T02:26:01;9.82;;;4.80;;
64601;SDS011;68371;42.630;23.192;2023-06-10T02:28:29;18.80;;;4.63;;
64601;SDS011;68371;42.630;23.192;2023-06-10T02:30:56;5.85;;;4.72;;
64601;SDS011;68371;42.630;23.192;2023-06-10T02:33:24;6.28;;;4.15;;
64601;SDS011;68371;42.630;23.192;2023-06-10T02:35:50;11.25;;;4.78;;
64601;SDS011;68371;42.630;23.192;2023-06-10T02:38:17;6.82;;;3.70;;
64601;SDS011;68371;42.630;23.192;2023-06-10T02:40:44;5.60;;;4.03;;
64601;SDS011;68371;42.630;23.192;2023-06-10T02:43:11;8.77;;;3.83;;
64601;SDS011;68371;42.630;23.192;2023-06-10T02:45:39;6.38;;;4.00;;
64601;SDS011;68371;42.630;23.192;2023-06-10T02:48:07;11.90;;;3.78;;
64601;SDS011;68371;42.630;23.192;2023-06-10T02:50:33;6.95;;;4.32;;
64601;SDS011;68371;42.630;23.192;2023-06-10T02:53:03;8.97;;;4.90;;
64601;SDS011;68371;42.630;23.192;2023-06-10T02:55:33;11.00;;;4.35;;
64601;SDS011;68371;42.630;23.192;2023-06-10T02:58:02;9.25;;;4.25;;
64601;SDS011;68371;42.630;23.192;2023-06-10T03:00:29;7.80;;;4.43;;
64601;SDS011;68371;42.630;23.192;2023-06-10T03:02:57;6.82;;;4.32;;
64601;SDS011;68371;42.630;23.192;2023-06-10T03:05:27;9.82;;;4.88;;
64601;SDS011;68371;42.630;23.192;2023-06-10T03:07:54;9.95;;;4.70;;
64601;SDS011;68371;42.630;23.192;2023-06-10T03:10:21;10.02;;;5.05;;
64601;SDS011;68371;42.630;23.192;2023-06-10T03:12:47;9.85;;;5.30;;
64601;SDS011;68371;42.630;23.192;2023-06-10T03:15:14;10.00;;;5.32;;
64601;SDS011;68371;42.630;23.192;2023-06-10T03:17:41;9.65;;;5.22;;
64601;SDS011;68371;42.630;23.192;2023-06-10T03:20:10;11.18;;;5.07;;
64601;SDS011;68371;42.630;23.192;2023-06-10T03:22:40;8.20;;;4.88;;
64601;SDS011;68371;42.630;23.192;2023-06-10T03:25:08;8.75;;;5.40;;
64601;SDS011;68371;42.630;23.192;2023-06-10T03:27:38;8.60;;;6.00;;
64601;SDS011;68371;42.630;23.192;2023-06-10T03:30:06;12.27;;;5.20;;
64601;SDS011;68371;42.630;23.192;2023-06-10T03:32:35;8.27;;;5.07;;
64601;SDS011;68371;42.630;23.192;2023-06-10T03:35:04;7.00;;;5.20;;
64601;SDS011;68371;42.630;23.192;2023-06-10T03:37:36;7.22;;;5.20;;
64601;SDS011;68371;42.630;23.192;2023-06-10T03:40:05;6.05;;;4.57;;
64601;SDS011;68371;42.630;23.192;2023-06-10T03:42:35;10.10;;;4.70;;
64601;SDS011;68371;42.630;23.192;2023-06-10T03:45:01;10.40;;;5.05;;
64601;SDS011;68371;42.630;23.192;2023-06-10T03:47:32;8.23;;;4.95;;
64601;SDS011;68371;42.630;23.192;2023-06-10T03:50:00;8.13;;;5.43;;
64601;SDS011;68371;42.630;23.192;2023-06-10T03:52:28;9.70;;;5.13;;
64601;SDS011;68371;42.630;23.192;2023-06-10T03:54:56;7.75;;;5.30;;
64601;SDS011;68371;42.630;23.192;2023-06-10T03:57:23;9.05;;;5.55;;
64601;SDS011;68371;42.630;23.192;2023-06-10T03:59:50;8.82;;;5.25;;
64601;SDS011;68371;42.630;23.192;2023-06-10T04:02:17;11.05;;;5.38;;
64601;SDS011;68371;42.630;23.192;2023-06-10T04:04:44;12.23;;;6.22;;
64601;SDS011;68371;42.630;23.192;2023-06-10T04:07:10;12.23;;;5.65;;
64601;SDS011;68371;42.630;23.192;2023-06-10T04:09:40;22.33;;;6.20;;
64601;SDS011;68371;42.630;23.192;2023-06-10T04:12:11;11.15;;;5.43;;
64601;SDS011;68371;42.630;23.192;2023-06-10T04:14:40;10.35;;;5.70;;
64601;SDS011;68371;42.630;23.192;2023-06-10T04:17:08;11.30;;;6.20;;
64601;SDS011;68371;42.630;23.192;2023-06-10T04:19:37;12.02;;;6.00;;
64601;SDS011;68371;42.630;23.192;2023-06-10T04:22:04;8.82;;;5.57;;
64601;SDS011;68371;42.630;23.192;2023-06-10T04:24:31;14.02;;;6.35;;
64601;SDS011;68371;42.630;23.192;2023-06-10T04:26:57;12.07;;;6.35;;
64601;SDS011;68371;42.630;23.192;2023-06-10T04:29:26;9.00;;;5.82;;
64601;SDS011;68371;42.630;23.192;2023-06-10T04:31:53;8.98;;;5.68;;
64601;SDS011;68371;42.630;23.192;2023-06-10T04:34:20;14.45;;;6.03;;
64601;SDS011;68371;42.630;23.192;2023-06-10T04:36:47;12.48;;;6.05;;
64601;SDS011;68371;42.630;23.192;2023-06-10T04:39:13;8.40;;;5.40;;
64601;SDS011;68371;42.630;23.192;2023-06-10T04:41:42;7.47;;;5.13;;
64601;SDS011;68371;42.630;23.192;2023-06-10T04:44:08;6.35;;;4.47;;
64601;SDS011;68371;42.630;23.192;2023-06-10T04:46:38;6.32;;;4.70;;
64601;SDS011;68371;42.630;23.192;2023-06-10T04:49:07;7.00;;;4.47;;
64601;SDS011;68371;42.630;23.192;2023-06-10T04:51:34;7.07;;;4.43;;
64601;SDS011;68371;42.630;23.192;2023-06-10T04:54:01;7.43;;;4.95;;
64601;SDS011;68371;42.630;23.192;2023-06-10T04:56:28;8.35;;;5.20;;
64601;SDS011;68371;42.630;23.192;2023-06-10T04:58:55;8.45;;;4.68;;
64601;SDS011;68371;42.630;23.192;2023-06-10T05:01:22;8.93;;;5.47;;
64601;SDS011;68371;42.630;23.192;2023-06-10T05:03:50;10.50;;;5.40;;
64601;SDS011;68371;42.630;23.192;2023-06-10T05:06:17;7.28;;;5.07;;
64601;SDS011;68371;42.630;23.192;2023-06-10T05:08:44;7.97;;;5.68;;
64601;SDS011;68371;42.630;23.192;2023-06-10T05:11:11;11.43;;;6.05;;
64601;SDS011;68371;42.630;23.192;2023-06-10T05:13:41;8.43;;;5.82;;
64601;SDS011;68371;42.630;23.192;2023-06-10T05:16:09;9.23;;;5.32;;
64601;SDS011;68371;42.630;23.192;2023-06-10T05:18:36;8.02;;;5.78;;
64601;SDS011;68371;42.630;23.192;2023-06-10T05:21:04;16.70;;;6.10;;
64601;SDS011;68371;42.630;23.192;2023-06-10T05:23:31;7.90;;;6.60;;
64601;SDS011;68371;42.630;23.192;2023-06-10T05:25:58;8.60;;;6.50;;
64601;SDS011;68371;42.630;23.192;2023-06-10T05:28:25;10.82;;;7.10;;
64601;SDS011;68371;42.630;23.192;2023-06-10T05:30:52;11.00;;;7.43;;
64601;SDS011;68371;42.630;23.192;2023-06-10T05:33:19;9.10;;;6.93;;
64601;SDS011;68371;42.630;23.192;2023-06-10T05:35:46;10.05;;;7.35;;
64601;SDS011;68371;42.630;23.192;2023-06-10T05:38:16;9.52;;;6.97;;
64601;SDS011;68371;42.630;23.192;2023-06-10T05:40:45;9.65;;;7.13;;
64601;SDS011;68371;42.630;23.192;2023-06-10T05:43:14;10.85;;;6.72;;
64601;SDS011;68371;42.630;23.192;2023-06-10T05:45:42;7.88;;;6.72;;
64601;SDS011;68371;42.630;23.192;2023-06-10T05:48:11;11.70;;;6.68;;
64601;SDS011;68371;42.630;23.192;2023-06-10T05:50:40;9.70;;;6.38;;
64601;SDS011;68371;42.630;23.192;2023-06-10T05:53:10;11.27;;;5.72;;
64601;SDS011;68371;42.630;23.192;2023-06-10T05:55:41;8.25;;;5.68;;
64601;SDS011;68371;42.630;23.192;2023-06-10T05:58:10;8.93;;;6.13;;
64601;SDS011;68371;42.630;23.192;2023-06-10T06:00:37;9.27;;;6.18;;
64601;SDS011;68371;42.630;23.192;2023-06-10T06:03:05;7.10;;;5.75;;
64601;SDS011;68371;42.630;23.192;2023-06-10T06:05:32;6.80;;;5.32;;
64601;SDS011;68371;42.630;23.192;2023-06-10T06:08:00;8.73;;;5.00;;
64601;SDS011;68371;42.630;23.192;2023-06-10T06:10:27;8.55;;;5.30;;
64601;SDS011;68371;42.630;23.192;2023-06-10T06:12:55;9.88;;;5.30;;
64601;SDS011;68371;42.630;23.192;2023-06-10T06:15:22;10.65;;;4.93;;
64601;SDS011;68371;42.630;23.192;2023-06-10T06:17:49;7.63;;;4.75;;
64601;SDS011;68371;42.630;23.192;2023-06-10T06:20:17;7.35;;;4.88;;
64601;SDS011;68371;42.630;23.192;2023-06-10T06:22:46;10.48;;;4.93;;
64601;SDS011;68371;42.630;23.192;2023-06-10T06:25:12;6.38;;;4.75;;
64601;SDS011;68371;42.630;23.192;2023-06-10T06:27:41;9.95;;;5.00;;
64601;SDS011;68371;42.630;23.192;2023-06-10T06:30:09;7.55;;;4.68;;
64601;SDS011;68371;42.630;23.192;2023-06-10T06:32:36;6.57;;;4.80;;
64601;SDS011;68371;42.630;23.192;2023-06-10T06:35:04;8.77;;;4.75;;
64601;SDS011;68371;42.630;23.192;2023-06-10T06:37:33;7.65;;;5.43;;
64601;SDS011;68371;42.630;23.192;2023-06-10T06:40:00;8.82;;;5.10;;
64601;SDS011;68371;42.630;23.192;2023-06-10T06:42:28;8.93;;;4.78;;
64601;SDS011;68371;42.630;23.192;2023-06-10T06:44:55;7.80;;;4.95;;
64601;SDS011;68371;42.630;23.192;2023-06-10T06:47:23;7.10;;;4.88;;
64601;SDS011;68371;42.630;23.192;2023-06-10T06:49:50;8.23;;;5.00;;
64601;SDS011;68371;42.630;23.192;2023-06-10T06:52:17;7.50;;;4.78;;
64601;SDS011;68371;42.630;23.192;2023-06-10T06:54:44;7.40;;;4.68;;
64601;SDS011;68371;42.630;23.192;2023-06-10T06:57:13;8.07;;;4.47;;
64601;SDS011;68371;42.630;23.192;2023-06-10T06:59:40;7.55;;;4.68;;
64601;SDS011;68371;42.630;23.192;2023-06-10T07:02:07;5.57;;;4.50;;
64601;SDS011;68371;42.630;23.192;2023-06-10T07:04:35;8.55;;;3.92;;
64601;SDS011;68371;42.630;23.192;2023-06-10T07:07:02;11.30;;;4.35;;
64601;SDS011;68371;42.630;23.192;2023-06-10T07:09:30;8.73;;;4.57;;
64601;SDS011;68371;42.630;23.192;2023-06-10T07:11:57;7.60;;;3.90;;
64601;SDS011;68371;42.630;23.192;2023-06-10T07:14:24;7.63;;;3.95;;
64601;SDS011;68371;42.630;23.192;2023-06-10T07:16:51;7.78;;;4.30;;
64601;SDS011;68371;42.630;23.192;2023-06-10T07:19:18;7.68;;;3.75;;
64601;SDS011;68371;42.630;23.192;2023-06-10T07:21:50;4.80;;;3.30;;
64601;SDS011;68371;42.630;23.192;2023-06-10T07:24:18;5.53;;;3.30;;
64601;SDS011;68371;42.630;23.192;2023-06-10T07:26:48;6.35;;;3.17;;
64601;SDS011;68371;42.630;23.192;2023-06-10T07:29:14;6.60;;;3.30;;
64601;SDS011;68371;42.630;23.192;2023-06-10T07:31:43;3.92;;;3.15;;
64601;SDS011;68371;42.630;23.192;2023-06-10T07:34:10;6.50;;;3.35;;
64601;SDS011;68371;42.630;23.192;2023-06-10T07:36:37;5.13;;;3.22;;
64601;SDS011;68371;42.630;23.192;2023-06-10T07:39:05;7.97;;;3.00;;
64601;SDS011;68371;42.630;23.192;2023-06-10T07:41:32;3.63;;;2.63;;
64601;SDS011;68371;42.630;23.192;2023-06-10T07:44:00;4.75;;;3.15;;
64601;SDS011;68371;42.630;23.192;2023-06-10T07:46:27;5.35;;;2.83;;
64601;SDS011;68371;42.630;23.192;2023-06-10T07:48:53;5.40;;;2.90;;
64601;SDS011;68371;42.630;23.192;2023-06-10T07:51:21;6.40;;;2.83;;
64601;SDS011;68371;42.630;23.192;2023-06-10T07:53:49;5.00;;;2.50;;
64601;SDS011;68371;42.630;23.192;2023-06-10T07:56:19;6.45;;;2.80;;
64601;SDS011;68371;42.630;23.192;2023-06-10T07:58:46;7.78;;;3.13;;
64601;SDS011;68371;42.630;23.192;2023-06-10T08:01:15;4.78;;;2.90;;
64601;SDS011;68371;42.630;23.192;2023-06-10T08:03:44;7.90;;;2.85;;
64601;SDS011;68371;42.630;23.192;2023-06-10T08:06:11;3.90;;;2.50;;
64601;SDS011;68371;42.630;23.192;2023-06-10T08:08:37;16.25;;;5.75;;
64601;SDS011;68371;42.630;23.192;2023-06-10T08:11:07;6.30;;;3.95;;
64601;SDS011;68371;42.630;23.192;2023-06-10T08:13:35;5.65;;;3.20;;
64601;SDS011;68371;42.630;23.192;2023-06-10T08:16:02;9.57;;;4.20;;
64601;SDS011;68371;42.630;23.192;2023-06-10T08:18:28;7.50;;;3.00;;
64601;SDS011;68371;42.630;23.192;2023-06-10T08:20:55;6.20;;;3.53;;
64601;SDS011;68371;42.630;23.192;2023-06-10T08:23:22;3.28;;;2.38;;
64601;SDS011;68371;42.630;23.192;2023-06-10T08:25:50;15.30;;;4.95;;
64601;SDS011;68371;42.630;23.192;2023-06-10T08:28:17;6.60;;;3.10;;
64601;SDS011;68371;42.630;23.192;2023-06-10T08:30:47;5.38;;;2.58;;
64601;SDS011;68371;42.630;23.192;2023-06-10T08:33:16;29.55;;;12.02;;
64601;SDS011;68371;42.630;23.192;2023-06-10T08:35:42;5.63;;;2.97;;
64601;SDS011;68371;42.630;23.192;2023-06-10T08:38:09;3.80;;;2.60;;
64601;SDS011;68371;42.630;23.192;2023-06-10T08:40:36;20.83;;;4.88;;
64601;SDS011;68371;42.630;23.192;2023-06-10T08:43:04;6.68;;;2.55;;
64601;SDS011;68371;42.630;23.192;2023-06-10T08:45:34;5.90;;;2.70;;
64601;SDS011;68371;42.630;23.192;2023-06-10T08:48:03;6.15;;;3.20;;
64601;SDS011;68371;42.630;23.192;2023-06-10T08:50:33;6.05;;;2.38;;
64601;SDS011;68371;42.630;23.192;2023-06-10T08:53:01;3.67;;;2.60;;
64601;SDS011;68371;42.630;23.192;2023-06-10T08:55:31;5.60;;;2.90;;
64601;SDS011;68371;42.630;23.192;2023-06-10T08:57:59;3.83;;;2.63;;
64601;SDS011;68371;42.630;23.192;2023-06-10T09:00:26;6.05;;;3.10;;
64601;SDS011;68371;42.630;23.192;2023-06-10T09:02:55;3.80;;;2.60;;
64601;SDS011;68371;42.630;23.192;2023-06-10T09:05:23;37.33;;;6.07;;
64601;SDS011;68371;42.630;23.192;2023-06-10T09:07:52;6.03;;;2.33;;
64601;SDS011;68371;42.630;23.192;2023-06-10T09:10:19;5.00;;;2.58;;
64601;SDS011;68371;42.630;23.192;2023-06-10T09:12:47;5.95;;;2.85;;
64601;SDS011;68371;42.630;23.192;2023-06-10T09:15:14;5.75;;;2.60;;
64601;SDS011;68371;42.630;23.192;2023-06-10T09:17:42;4.85;;;2.45;;
64601;SDS011;68371;42.630;23.192;2023-06-10T09:20:10;4.35;;;2.70;;
64601;SDS011;68371;42.630;23.192;2023-06-10T09:22:39;3.65;;;2.20;;
64601;SDS011;68371;42.630;23.192;2023-06-10T09:25:07;3.17;;;2.20;;
64601;SDS011;68371;42.630;23.192;2023-06-10T09:27:43;3.15;;;2.05;;
64601;SDS011;68371;42.630;23.192;2023-06-10T09:30:11;4.85;;;2.50;;
64601;SDS011;68371;42.630;23.192;2023-06-10T09:32:51;3.00;;;2.35;;
64601;SDS011;68371;42.630;23.192;2023-06-10T09:35:23;4.65;;;2.67;;
64601;SDS011;68371;42.630;23.192;2023-06-10T09:37:54;5.18;;;2.65;;
64601;SDS011;68371;42.630;23.192;2023-06-10T09:40:23;7.85;;;3.22;;
64601;SDS011;68371;42.630;23.192;2023-06-10T09:42:54;5.70;;;3.35;;
64601;SDS011;68371;42.630;23.192;2023-06-10T09:45:24;8.93;;;3.50;;
64601;SDS011;68371;42.630;23.192;2023-06-10T09:47:55;7.47;;;2.85;;
64601;SDS011;68371;42.630;23.192;2023-06-10T09:50:24;7.07;;;3.25;;
64601;SDS011;68371;42.630;23.192;2023-06-10T09:52:50;7.18;;;3.10;;
64601;SDS011;68371;42.630;23.192;2023-06-10T09:55:20;4.22;;;2.95;;
64601;SDS011;68371;42.630;23.192;2023-06-10T09:57:49;6.80;;;2.85;;
64601;SDS011;68371;42.630;23.192;2023-06-10T10:00:21;5.20;;;3.00;;
64601;SDS011;68371;42.630;23.192;2023-06-10T10:02:52;4.63;;;3.05;;
64601;SDS011;68371;42.630;23.192;2023-06-10T10:05:21;5.60;;;3.10;;
64601;SDS011;68371;42.630;23.192;2023-06-10T10:07:51;9.20;;;4.10;;
64601;SDS011;68371;42.630;23.192;2023-06-10T10:10:22;16.70;;;5.78;;
64601;SDS011;68371;42.630;23.192;2023-06-10T10:12:53;8.00;;;4.53;;
64601;SDS011;68371;42.630;23.192;2023-06-10T10:15:22;4.10;;;2.40;;
64601;SDS011;68371;42.630;23.192;2023-06-10T10:17:56;4.88;;;2.75;;
64601;SDS011;68371;42.630;23.192;2023-06-10T10:20:29;5.38;;;2.55;;
64601;SDS011;68371;42.630;23.192;2023-06-10T10:23:02;3.73;;;2.60;;
64601;SDS011;68371;42.630;23.192;2023-06-10T10:25:32;7.45;;;3.90;;
64601;SDS011;68371;42.630;23.192;2023-06-10T10:28:02;6.43;;;3.17;;
64601;SDS011;68371;42.630;23.192;2023-06-10T10:30:34;4.88;;;3.03;;
64601;SDS011;68371;42.630;23.192;2023-06-10T10:33:06;5.15;;;2.70;;
64601;SDS011;68371;42.630;23.192;2023-06-10T10:35:38;4.63;;;3.13;;
64601;SDS011;68371;42.630;23.192;2023-06-10T10:38:08;8.75;;;3.08;;
64601;SDS011;68371;42.630;23.192;2023-06-10T10:40:35;4.15;;;2.90;;
64601;SDS011;68371;42.630;23.192;2023-06-10T10:43:03;7.10;;;3.35;;
64601;SDS011;68371;42.630;23.192;2023-06-10T10:45:33;8.25;;;3.97;;
64601;SDS011;68371;42.630;23.192;2023-06-10T10:48:07;7.20;;;3.63;;
64601;SDS011;68371;42.630;23.192;2023-06-10T10:50:37;6.40;;;3.13;;
64601;SDS011;68371;42.630;23.192;2023-06-10T10:53:04;4.95;;;3.28;;
64601;SDS011;68371;42.630;23.192;2023-06-10T10:55:33;5.32;;;3.22;;
64601;SDS011;68371;42.630;23.192;2023-06-10T10:58:02;5.22;;;3.60;;
64601;SDS011;68371;42.630;23.192;2023-06-10T11:00:31;7.53;;;3.78;;
64601;SDS011;68371;42.630;23.192;2023-06-10T11:02:59;4.15;;;3.10;;
64601;SDS011;68371;42.630;23.192;2023-06-10T11:05:31;6.70;;;3.38;;
64601;SDS011;68371;42.630;23.192;2023-06-10T11:08:01;4.85;;;3.10;;
64601;SDS011;68371;42.630;23.192;2023-06-10T11:10:29;4.80;;;2.97;;
64601;SDS011;68371;42.630;23.192;2023-06-10T11:12:59;9.23;;;3.00;;
64601;SDS011;68371;42.630;23.192;2023-06-10T11:15:28;4.72;;;2.67;;
64601;SDS011;68371;42.630;23.192;2023-06-10T11:18:08;5.38;;;2.97;;
64601;SDS011;68371;42.630;23.192;2023-06-10T11:23:34;6.18;;;2.88;;
64601;SDS011;68371;42.630;23.192;2023-06-10T11:26:12;5.68;;;2.55;;
64601;SDS011;68371;42.630;23.192;2023-06-10T11:28:42;5.00;;;2.70;;
64601;SDS011;68371;42.630;23.192;2023-06-10T11:31:28;9.25;;;3.20;;
64601;SDS011;68371;42.630;23.192;2023-06-10T11:33:56;4.05;;;2.90;;
64601;SDS011;68371;42.630;23.192;2023-06-10T11:36:25;3.67;;;2.33;;
64601;SDS011;68371;42.630;23.192;2023-06-10T11:38:56;3.50;;;2.58;;
64601;SDS011;68371;42.630;23.192;2023-06-10T11:41:25;5.35;;;2.95;;
64601;SDS011;68371;42.630;23.192;2023-06-10T11:43:56;4.82;;;2.30;;
64601;SDS011;68371;42.630;23.192;2023-06-10T11:46:28;4.13;;;2.53;;
64601;SDS011;68371;42.630;23.192;2023-06-10T11:48:56;4.75;;;2.88;;
64601;SDS011;68371;42.630;23.192;2023-06-10T11:51:25;4.27;;;2.63;;
64601;SDS011;68371;42.630;23.192;2023-06-10T11:53:55;6.53;;;2.60;;
64601;SDS011;68371;42.630;23.192;2023-06-10T11:56:24;3.58;;;2.60;;
64601;SDS011;68371;42.630;23.192;2023-06-10T11:58:52;3.83;;;2.70;;
64601;SDS011;68371;42.630;23.192;2023-06-10T12:01:22;5.63;;;3.08;;
64601;SDS011;68371;42.630;23.192;2023-06-10T12:03:56;6.75;;;2.70;;
64601;SDS011;68371;42.630;23.192;2023-06-10T12:06:25;3.67;;;2.65;;
64601;SDS011;68371;42.630;23.192;2023-06-10T12:08:55;11.15;;;2.80;;
64601;SDS011;68371;42.630;23.192;2023-06-10T12:11:24;5.53;;;2.80;;
64601;SDS011;68371;42.630;23.192;2023-06-10T12:13:51;12.07;;;3.13;;
64601;SDS011;68371;42.630;23.192;2023-06-10T12:16:18;141.38;;;5.93;;
64601;SDS011;68371;42.630;23.192;2023-06-10T12:18:47;7.13;;;3.28;;
64601;SDS011;68371;42.630;23.192;2023-06-10T12:21:20;13.05;;;3.40;;
64601;SDS011;68371;42.630;23.192;2023-06-10T12:24:02;4.85;;;3.13;;
64601;SDS011;68371;42.630;23.192;2023-06-10T12:26:37;6.78;;;2.90;;
64601;SDS011;68371;42.630;23.192;2023-06-10T12:29:12;5.47;;;2.95;;
64601;SDS011;68371;42.630;23.192;2023-06-10T12:34:37;3.80;;;2.85;;
64601;SDS011;68371;42.630;23.192;2023-06-10T12:37:06;4.70;;;3.03;;
64601;SDS011;68371;42.630;23.192;2023-06-10T12:39:38;6.90;;;3.30;;
64601;SDS011;68371;42.630;23.192;2023-06-10T12:42:06;4.68;;;3.10;;
64601;SDS011;68371;42.630;23.192;2023-06-10T12:44:35;6.13;;;3.20;;
64601;SDS011;68371;42.630;23.192;2023-06-10T12:47:09;4.82;;;3.08;;
64601;SDS011;68371;42.630;23.192;2023-06-10T12:49:38;5.15;;;2.90;;
64601;SDS011;68371;42.630;23.192;2023-06-10T12:52:05;5.03;;;3.00;;
64601;SDS011;68371;42.630;23.192;2023-06-10T12:54:33;21.40;;;4.38;;
64601;SDS011;68371;42.630;23.192;2023-06-10T12:57:00;4.97;;;3.13;;
64601;SDS011;68371;42.630;23.192;2023-06-10T12:59:33;8.18;;;3.28;;
64601;SDS011;68371;42.630;23.192;2023-06-10T13:01:59;4.80;;;3.00;;
64601;SDS011;68371;42.630;23.192;2023-06-10T13:04:26;7.43;;;3.17;;
64601;SDS011;68371;42.630;23.192;2023-06-10T13:06:56;8.55;;;2.90;;
64601;SDS011;68371;42.630;23.192;2023-06-10T13:09:24;9.05;;;3.53;;
64601;SDS011;68371;42.630;23.192;2023-06-10T13:11:51;9.07;;;3.17;;
64601;SDS011;68371;42.630;23.192;2023-06-10T13:14:18;5.20;;;2.95;;
64601;SDS011;68371;42.630;23.192;2023-06-10T13:16:45;6.78;;;3.00;;
64601;SDS011;68371;42.630;23.192;2023-06-10T13:19:11;5.60;;;3.30;;
64601;SDS011;68371;42.630;23.192;2023-06-10T13:21:38;4.18;;;3.15;;
64601;SDS011;68371;42.630;23.192;2023-06-10T13:24:06;10.25;;;3.08;;
64601;SDS011;68371;42.630;23.192;2023-06-10T13:26:33;5.28;;;3.08;;
64601;SDS011;68371;42.630;23.192;2023-06-10T13:29:00;5.10;;;2.88;;
64601;SDS011;68371;42.630;23.192;2023-06-10T13:31:27;5.80;;;3.58;;
64601;SDS011;68371;42.630;23.192;2023-06-10T13:33:56;5.15;;;2.83;;
64601;SDS011;68371;42.630;23.192;2023-06-10T13:36:24;7.13;;;2.50;;
64601;SDS011;68371;42.630;23.192;2023-06-10T13:38:51;4.47;;;2.70;;
64601;SDS011;68371;42.630;23.192;2023-06-10T13:41:19;4.82;;;3.08;;
64601;SDS011;68371;42.630;23.192;2023-06-10T13:43:46;5.90;;;2.60;;
64601;SDS011;68371;42.630;23.192;2023-06-10T13:46:12;4.35;;;2.70;;
64601;SDS011;68371;42.630;23.192;2023-06-10T13:48:39;4.47;;;2.72;;
64601;SDS011;68371;42.630;23.192;2023-06-10T13:51:07;4.15;;;2.75;;
64601;SDS011;68371;42.630;23.192;2023-06-10T13:53:34;8.27;;;3.00;;
64601;SDS011;68371;42.630;23.192;2023-06-10T13:56:01;4.45;;;2.58;;
64601;SDS011;68371;42.630;23.192;2023-06-10T13:58:30;6.25;;;3.10;;
64601;SDS011;68371;42.630;23.192;2023-06-10T14:00:59;5.68;;;2.90;;
64601;SDS011;68371;42.630;23.192;2023-06-10T14:03:26;6.82;;;2.95;;
64601;SDS011;68371;42.630;23.192;2023-06-10T14:05:54;5.82;;;2.90;;
64601;SDS011;68371;42.630;23.192;2023-06-10T14:08:21;7.85;;;3.00;;
64601;SDS011;68371;42.630;23.192;2023-06-10T14:10:48;5.90;;;3.42;;
64601;SDS011;68371;42.630;23.192;2023-06-10T14:13:15;7.30;;;3.55;;
64601;SDS011;68371;42.630;23.192;2023-06-10T14:15:43;5.43;;;3.17;;
64601;SDS011;68371;42.630;23.192;2023-06-10T14:18:10;4.57;;;3.00;;
64601;SDS011;68371;42.630;23.192;2023-06-10T14:20:37;7.60;;;3.38;;
64601;SDS011;68371;42.630;23.192;2023-06-10T14:23:04;10.10;;;3.30;;
64601;SDS011;68371;42.630;23.192;2023-06-10T14:25:30;9.20;;;3.55;;
64601;SDS011;68371;42.630;23.192;2023-06-10T14:28:03;5.18;;;3.40;;
64601;SDS011;68371;42.630;23.192;2023-06-10T14:30:30;8.27;;;3.47;;
64601;SDS011;68371;42.630;23.192;2023-06-10T14:32:59;4.80;;;3.30;;
64601;SDS011;68371;42.630;23.192;2023-06-10T14:35:26;5.45;;;2.83;;
64601;SDS011;68371;42.630;23.192;2023-06-10T14:37:55;5.63;;;3.30;;
64601;SDS011;68371;42.630;23.192;2023-06-10T14:40:21;5.63;;;4.05;;
64601;SDS011;68371;42.630;23.192;2023-06-10T14:42:50;7.93;;;4.38;;
64601;SDS011;68371;42.630;23.192;2023-06-10T14:45:16;16.83;;;10.60;;
64601;SDS011;68371;42.630;23.192;2023-06-10T14:47:43;11.02;;;6.30;;